sensor_id;sensor_type;location;lat;lon;timestamp;P1;durP1;ratioP1;P2;durP2;ratioP2
17614;SDS011;8926;49.720;6.576;2023-03-14T00:00:33;6.17;;;2.30;;
17614;SDS011;8926;49.720;6.576;2023-03-14T00:02:59;3.10;;;1.67;;
17614;SDS011;8926;49.720;6.576;2023-03-14T00:05:24;8.13;;;2.57;;
17614;SDS011;8926;49.720;6.576;2023-03-14T00:07:50;3.27;;;1.70;;
17614;SDS011;8926;49.720;6.576;2023-03-14T00:10:15;3.73;;;1.63;;
17614;SDS011;8926;49.720;6.576;2023-03-14T00:12:41;5.10;;;2.47;;
17614;SDS011;8926;49.720;6.576;2023-03-14T00:15:07;6.33;;;2.47;;
17614;SDS011;8926;49.720;6.576;2023-03-14T00:17:33;3.97;;;1.77;;
17614;SDS011;8926;49.720;6.576;2023-03-14T00:19:59;5.83;;;2.47;;
17614;SDS011;8926;49.720;6.576;2023-03-14T00:22:33;8.13;;;2.60;;
17614;SDS011;8926;49.720;6.576;2023-03-14T00:25:01;7.63;;;2.10;;
17614;SDS011;8926;49.720;6.576;2023-03-14T00:27:27;8.10;;;2.87;;
17614;SDS011;8926;49.720;6.576;2023-03-14T00:29:52;6.87;;;2.40;;
17614;SDS011;8926;49.720;6.576;2023-03-14T00:32:17;4.27;;;2.10;;
17614;SDS011;8926;49.720;6.576;2023-03-14T00:34:43;4.00;;;1.83;;
17614;SDS011;8926;49.720;6.576;2023-03-14T00:37:08;3.80;;;1.97;;
17614;SDS011;8926;49.720;6.576;2023-03-14T00:39:33;4.03;;;2.33;;
17614;SDS011;8926;49.720;6.576;2023-03-14T00:41:59;3.93;;;1.90;;
17614;SDS011;8926;49.720;6.576;2023-03-14T00:44:24;6.63;;;2.37;;
17614;SDS011;8926;49.720;6.576;2023-03-14T00:46:49;2.87;;;1.70;;
17614;SDS011;8926;49.720;6.576;2023-03-14T00:49:15;5.17;;;1.90;;
17614;SDS011;8926;49.720;6.576;2023-03-14T00:51:40;6.17;;;2.17;;
17614;SDS011;8926;49.720;6.576;2023-03-14T00:54:05;6.03;;;2.10;;
17614;SDS011;8926;49.720;6.576;2023-03-14T00:56:31;6.37;;;2.37;;
17614;SDS011;8926;49.720;6.576;2023-03-14T00:58:56;6.53;;;2.57;;
17614;SDS011;8926;49.720;6.576;2023-03-14T01:01:22;7.47;;;2.33;;
17614;SDS011;8926;49.720;6.576;2023-03-14T01:03:51;6.40;;;3.03;;
17614;SDS011;8926;49.720;6.576;2023-03-14T01:06:18;5.63;;;2.00;;
17614;SDS011;8926;49.720;6.576;2023-03-14T01:08:46;10.77;;;2.33;;
17614;SDS011;8926;49.720;6.576;2023-03-14T01:11:13;6.67;;;2.60;;
17614;SDS011;8926;49.720;6.576;2023-03-14T01:13:40;7.67;;;2.00;;
17614;SDS011;8926;49.720;6.576;2023-03-14T01:16:07;7.00;;;2.13;;
17614;SDS011;8926;49.720;6.576;2023-03-14T01:18:34;6.50;;;2.30;;
17614;SDS011;8926;49.720;6.576;2023-03-14T01:21:03;5.20;;;2.13;;
17614;SDS011;8926;49.720;6.576;2023-03-14T01:23:34;5.93;;;1.73;;
17614;SDS011;8926;49.720;6.576;2023-03-14T01:25:59;4.57;;;2.10;;
17614;SDS011;8926;49.720;6.576;2023-03-14T01:28:24;4.57;;;2.30;;
17614;SDS011;8926;49.720;6.576;2023-03-14T01:30:50;6.80;;;2.17;;
17614;SDS011;8926;49.720;6.576;2023-03-14T01:33:15;6.77;;;2.17;;
17614;SDS011;8926;49.720;6.576;2023-03-14T01:35:40;6.20;;;2.07;;
17614;SDS011;8926;49.720;6.576;2023-03-14T01:38:06;4.13;;;2.10;;
17614;SDS011;8926;49.720;6.576;2023-03-14T01:40:31;4.23;;;1.90;;
17614;SDS011;8926;49.720;6.576;2023-03-14T01:42:57;5.93;;;1.83;;
17614;SDS011;8926;49.720;6.576;2023-03-14T01:48:22;3.33;;;1.90;;
17614;SDS011;8926;49.720;6.576;2023-03-14T01:50:48;7.13;;;2.47;;
17614;SDS011;8926;49.720;6.576;2023-03-14T01:53:13;4.43;;;1.83;;
17614;SDS011;8926;49.720;6.576;2023-03-14T01:55:39;6.57;;;1.90;;
17614;SDS011;8926;49.720;6.576;2023-03-14T01:58:05;4.47;;;2.00;;
17614;SDS011;8926;49.720;6.576;2023-03-14T02:00:30;9.20;;;2.20;;
17614;SDS011;8926;49.720;6.576;2023-03-14T02:03:01;6.30;;;2.30;;
17614;SDS011;8926;49.720;6.576;2023-03-14T02:05:31;7.80;;;2.57;;
17614;SDS011;8926;49.720;6.576;2023-03-14T02:08:00;6.63;;;2.20;;
17614;SDS011;8926;49.720;6.576;2023-03-14T02:10:28;4.90;;;1.80;;
17614;SDS011;8926;49.720;6.576;2023-03-14T02:12:56;7.33;;;2.63;;
17614;SDS011;8926;49.720;6.576;2023-03-14T02:15:26;5.83;;;1.77;;
17614;SDS011;8926;49.720;6.576;2023-03-14T02:17:51;4.60;;;1.97;;
17614;SDS011;8926;49.720;6.576;2023-03-14T02:23:23;4.83;;;1.80;;
17614;SDS011;8926;49.720;6.576;2023-03-14T02:26:11;4.97;;;2.07;;
17614;SDS011;8926;49.720;6.576;2023-03-14T02:28:44;5.10;;;1.70;;
17614;SDS011;8926;49.720;6.576;2023-03-14T02:31:09;5.77;;;2.00;;
17614;SDS011;8926;49.720;6.576;2023-03-14T02:33:36;6.30;;;1.90;;
17614;SDS011;8926;49.720;6.576;2023-03-14T02:36:07;9.33;;;2.97;;
17614;SDS011;8926;49.720;6.576;2023-03-14T02:38:37;5.60;;;1.70;;
17614;SDS011;8926;49.720;6.576;2023-03-14T02:41:11;7.80;;;2.33;;
17614;SDS011;8926;49.720;6.576;2023-03-14T02:43:36;5.20;;;1.93;;
17614;SDS011;8926;49.720;6.576;2023-03-14T02:46:02;4.17;;;1.87;;
17614;SDS011;8926;49.720;6.576;2023-03-14T02:48:31;5.93;;;2.10;;
17614;SDS011;8926;49.720;6.576;2023-03-14T02:51:01;7.70;;;1.97;;
17614;SDS011;8926;49.720;6.576;2023-03-14T02:53:31;5.17;;;1.90;;
17614;SDS011;8926;49.720;6.576;2023-03-14T02:55:59;4.10;;;1.80;;
17614;SDS011;8926;49.720;6.576;2023-03-14T02:58:25;9.57;;;2.13;;
17614;SDS011;8926;49.720;6.576;2023-03-14T03:00:51;4.53;;;1.87;;
17614;SDS011;8926;49.720;6.576;2023-03-14T03:03:17;2.80;;;1.17;;
17614;SDS011;8926;49.720;6.576;2023-03-14T03:05:42;3.17;;;1.70;;
17614;SDS011;8926;49.720;6.576;2023-03-14T03:08:09;3.47;;;1.40;;
17614;SDS011;8926;49.720;6.576;2023-03-14T03:10:34;5.37;;;1.63;;
17614;SDS011;8926;49.720;6.576;2023-03-14T03:13:00;2.67;;;1.27;;
17614;SDS011;8926;49.720;6.576;2023-03-14T03:15:26;5.60;;;1.87;;
17614;SDS011;8926;49.720;6.576;2023-03-14T03:17:51;3.03;;;1.50;;
17614;SDS011;8926;49.720;6.576;2023-03-14T03:20:17;4.40;;;2.20;;
17614;SDS011;8926;49.720;6.576;2023-03-14T03:22:42;7.07;;;1.73;;
17614;SDS011;8926;49.720;6.576;2023-03-14T03:25:08;4.97;;;1.63;;
17614;SDS011;8926;49.720;6.576;2023-03-14T03:27:34;3.00;;;1.30;;
17614;SDS011;8926;49.720;6.576;2023-03-14T03:30:01;4.43;;;1.73;;
17614;SDS011;8926;49.720;6.576;2023-03-14T03:32:29;5.53;;;1.50;;
17614;SDS011;8926;49.720;6.576;2023-03-14T03:34:54;5.93;;;1.70;;
17614;SDS011;8926;49.720;6.576;2023-03-14T03:37:19;4.83;;;1.73;;
17614;SDS011;8926;49.720;6.576;2023-03-14T03:39:44;5.63;;;1.67;;
17614;SDS011;8926;49.720;6.576;2023-03-14T03:42:10;3.67;;;1.80;;
17614;SDS011;8926;49.720;6.576;2023-03-14T03:44:35;5.63;;;1.70;;
17614;SDS011;8926;49.720;6.576;2023-03-14T03:47:01;7.03;;;1.60;;
17614;SDS011;8926;49.720;6.576;2023-03-14T03:49:30;5.17;;;1.80;;
17614;SDS011;8926;49.720;6.576;2023-03-14T03:51:56;3.17;;;1.40;;
17614;SDS011;8926;49.720;6.576;2023-03-14T03:54:21;2.90;;;1.30;;
17614;SDS011;8926;49.720;6.576;2023-03-14T03:56:47;5.53;;;1.47;;
17614;SDS011;8926;49.720;6.576;2023-03-14T03:59:12;3.23;;;1.53;;
17614;SDS011;8926;49.720;6.576;2023-03-14T04:01:37;4.20;;;1.53;;
17614;SDS011;8926;49.720;6.576;2023-03-14T04:04:03;4.80;;;1.77;;
17614;SDS011;8926;49.720;6.576;2023-03-14T04:06:28;2.20;;;1.10;;
17614;SDS011;8926;49.720;6.576;2023-03-14T04:08:54;2.83;;;1.00;;
17614;SDS011;8926;49.720;6.576;2023-03-14T04:11:19;3.43;;;1.37;;
17614;SDS011;8926;49.720;6.576;2023-03-14T04:13:44;6.80;;;1.10;;
17614;SDS011;8926;49.720;6.576;2023-03-14T04:16:14;3.07;;;1.07;;
17614;SDS011;8926;49.720;6.576;2023-03-14T04:18:41;2.67;;;1.07;;
17614;SDS011;8926;49.720;6.576;2023-03-14T04:21:07;1.73;;;1.03;;
17614;SDS011;8926;49.720;6.576;2023-03-14T04:23:32;3.17;;;1.00;;
17614;SDS011;8926;49.720;6.576;2023-03-14T04:25:58;2.17;;;1.03;;
17614;SDS011;8926;49.720;6.576;2023-03-14T04:28:23;3.80;;;1.30;;
17614;SDS011;8926;49.720;6.576;2023-03-14T04:30:49;3.23;;;1.10;;
17614;SDS011;8926;49.720;6.576;2023-03-14T04:33:14;3.37;;;0.80;;
17614;SDS011;8926;49.720;6.576;2023-03-14T04:35:42;3.87;;;1.20;;
17614;SDS011;8926;49.720;6.576;2023-03-14T04:38:08;1.73;;;0.80;;
17614;SDS011;8926;49.720;6.576;2023-03-14T04:40:33;4.13;;;1.10;;
17614;SDS011;8926;49.720;6.576;2023-03-14T04:42:58;3.13;;;1.30;;
17614;SDS011;8926;49.720;6.576;2023-03-14T04:45:24;3.17;;;1.00;;
17614;SDS011;8926;49.720;6.576;2023-03-14T04:47:49;3.40;;;1.13;;
17614;SDS011;8926;49.720;6.576;2023-03-14T04:50:14;1.60;;;1.07;;
17614;SDS011;8926;49.720;6.576;2023-03-14T04:52:40;2.50;;;1.17;;
17614;SDS011;8926;49.720;6.576;2023-03-14T04:55:05;2.90;;;1.00;;
17614;SDS011;8926;49.720;6.576;2023-03-14T04:57:30;3.73;;;1.40;;
17614;SDS011;8926;49.720;6.576;2023-03-14T04:59:56;4.87;;;1.40;;
17614;SDS011;8926;49.720;6.576;2023-03-14T05:02:21;3.60;;;1.43;;
17614;SDS011;8926;49.720;6.576;2023-03-14T05:04:46;4.37;;;2.00;;
17614;SDS011;8926;49.720;6.576;2023-03-14T05:07:12;6.20;;;1.80;;
17614;SDS011;8926;49.720;6.576;2023-03-14T05:09:37;4.53;;;1.53;;
17614;SDS011;8926;49.720;6.576;2023-03-14T05:12:02;4.83;;;2.07;;
17614;SDS011;8926;49.720;6.576;2023-03-14T05:14:28;4.67;;;1.60;;
17614;SDS011;8926;49.720;6.576;2023-03-14T05:16:53;2.90;;;1.30;;
17614;SDS011;8926;49.720;6.576;2023-03-14T05:19:18;3.73;;;1.50;;
17614;SDS011;8926;49.720;6.576;2023-03-14T05:21:43;4.73;;;1.27;;
17614;SDS011;8926;49.720;6.576;2023-03-14T05:24:09;2.97;;;1.30;;
17614;SDS011;8926;49.720;6.576;2023-03-14T05:26:34;5.23;;;1.63;;
17614;SDS011;8926;49.720;6.576;2023-03-14T05:28:59;2.73;;;1.30;;
17614;SDS011;8926;49.720;6.576;2023-03-14T05:31:25;4.67;;;1.50;;
17614;SDS011;8926;49.720;6.576;2023-03-14T05:33:50;3.00;;;1.07;;
17614;SDS011;8926;49.720;6.576;2023-03-14T05:36:15;3.60;;;1.50;;
17614;SDS011;8926;49.720;6.576;2023-03-14T05:38:41;6.37;;;1.87;;
17614;SDS011;8926;49.720;6.576;2023-03-14T05:41:06;6.03;;;1.60;;
17614;SDS011;8926;49.720;6.576;2023-03-14T05:43:32;3.53;;;1.80;;
17614;SDS011;8926;49.720;6.576;2023-03-14T05:45:57;2.93;;;1.20;;
17614;SDS011;8926;49.720;6.576;2023-03-14T05:48:22;2.13;;;1.10;;
17614;SDS011;8926;49.720;6.576;2023-03-14T05:50:48;5.10;;;1.20;;
17614;SDS011;8926;49.720;6.576;2023-03-14T05:53:13;4.70;;;1.53;;
17614;SDS011;8926;49.720;6.576;2023-03-14T05:55:39;4.43;;;1.00;;
17614;SDS011;8926;49.720;6.576;2023-03-14T05:58:05;3.90;;;1.00;;
17614;SDS011;8926;49.720;6.576;2023-03-14T06:00:30;2.87;;;1.30;;
17614;SDS011;8926;49.720;6.576;2023-03-14T06:02:55;2.23;;;0.90;;
17614;SDS011;8926;49.720;6.576;2023-03-14T06:05:20;4.63;;;1.30;;
17614;SDS011;8926;49.720;6.576;2023-03-14T06:07:46;2.73;;;1.00;;
17614;SDS011;8926;49.720;6.576;2023-03-14T06:10:11;3.80;;;1.20;;
17614;SDS011;8926;49.720;6.576;2023-03-14T06:12:36;2.33;;;1.10;;
17614;SDS011;8926;49.720;6.576;2023-03-14T06:15:02;2.83;;;1.20;;
17614;SDS011;8926;49.720;6.576;2023-03-14T06:17:27;3.27;;;1.10;;
17614;SDS011;8926;49.720;6.576;2023-03-14T06:19:52;2.57;;;1.00;;
17614;SDS011;8926;49.720;6.576;2023-03-14T06:22:18;3.30;;;0.80;;
17614;SDS011;8926;49.720;6.576;2023-03-14T06:24:44;1.77;;;1.00;;
17614;SDS011;8926;49.720;6.576;2023-03-14T06:27:09;2.83;;;0.80;;
17614;SDS011;8926;49.720;6.576;2023-03-14T06:29:35;1.73;;;1.10;;
17614;SDS011;8926;49.720;6.576;2023-03-14T06:32:00;3.10;;;1.30;;
17614;SDS011;8926;49.720;6.576;2023-03-14T06:34:25;5.37;;;1.60;;
17614;SDS011;8926;49.720;6.576;2023-03-14T06:36:51;2.23;;;0.90;;
17614;SDS011;8926;49.720;6.576;2023-03-14T06:39:16;5.13;;;1.13;;
17614;SDS011;8926;49.720;6.576;2023-03-14T06:41:41;1.60;;;0.70;;
17614;SDS011;8926;49.720;6.576;2023-03-14T06:44:06;2.20;;;0.80;;
17614;SDS011;8926;49.720;6.576;2023-03-14T06:46:32;2.93;;;0.93;;
17614;SDS011;8926;49.720;6.576;2023-03-14T06:48:57;2.10;;;0.80;;
17614;SDS011;8926;49.720;6.576;2023-03-14T06:51:22;2.07;;;0.90;;
17614;SDS011;8926;49.720;6.576;2023-03-14T06:53:48;1.57;;;0.57;;
17614;SDS011;8926;49.720;6.576;2023-03-14T06:56:13;1.87;;;0.77;;
17614;SDS011;8926;49.720;6.576;2023-03-14T06:58:38;1.73;;;0.73;;
17614;SDS011;8926;49.720;6.576;2023-03-14T07:01:03;2.40;;;0.87;;
17614;SDS011;8926;49.720;6.576;2023-03-14T07:03:29;3.73;;;1.27;;
17614;SDS011;8926;49.720;6.576;2023-03-14T07:05:54;1.17;;;0.77;;
17614;SDS011;8926;49.720;6.576;2023-03-14T07:08:20;2.33;;;0.77;;
17614;SDS011;8926;49.720;6.576;2023-03-14T07:10:45;1.20;;;0.70;;
17614;SDS011;8926;49.720;6.576;2023-03-14T07:13:11;2.00;;;0.80;;
17614;SDS011;8926;49.720;6.576;2023-03-14T07:15:36;3.33;;;1.37;;
17614;SDS011;8926;49.720;6.576;2023-03-14T07:18:02;2.00;;;0.83;;
17614;SDS011;8926;49.720;6.576;2023-03-14T07:20:27;4.47;;;0.90;;
17614;SDS011;8926;49.720;6.576;2023-03-14T07:22:54;2.90;;;1.00;;
17614;SDS011;8926;49.720;6.576;2023-03-14T07:25:19;2.40;;;0.90;;
17614;SDS011;8926;49.720;6.576;2023-03-14T07:27:45;1.43;;;0.87;;
17614;SDS011;8926;49.720;6.576;2023-03-14T07:30:12;1.70;;;0.73;;
17614;SDS011;8926;49.720;6.576;2023-03-14T07:32:37;1.70;;;0.90;;
17614;SDS011;8926;49.720;6.576;2023-03-14T07:35:03;2.33;;;0.57;;
17614;SDS011;8926;49.720;6.576;2023-03-14T07:37:29;1.77;;;0.80;;
17614;SDS011;8926;49.720;6.576;2023-03-14T07:39:54;1.63;;;0.70;;
17614;SDS011;8926;49.720;6.576;2023-03-14T07:42:19;0.50;;;0.30;;
17614;SDS011;8926;49.720;6.576;2023-03-14T07:44:45;1.63;;;0.60;;
17614;SDS011;8926;49.720;6.576;2023-03-14T07:47:10;2.30;;;0.50;;
17614;SDS011;8926;49.720;6.576;2023-03-14T07:49:35;0.70;;;0.60;;
17614;SDS011;8926;49.720;6.576;2023-03-14T07:52:01;0.73;;;0.50;;
17614;SDS011;8926;49.720;6.576;2023-03-14T07:54:26;0.70;;;0.50;;
17614;SDS011;8926;49.720;6.576;2023-03-14T07:56:51;1.10;;;0.60;;
17614;SDS011;8926;49.720;6.576;2023-03-14T07:59:17;0.93;;;0.57;;
17614;SDS011;8926;49.720;6.576;2023-03-14T08:01:43;1.33;;;0.60;;
17614;SDS011;8926;49.720;6.576;2023-03-14T08:04:08;1.00;;;0.40;;
17614;SDS011;8926;49.720;6.576;2023-03-14T08:06:34;1.57;;;0.40;;
17614;SDS011;8926;49.720;6.576;2023-03-14T08:09:00;0.43;;;0.43;;
17614;SDS011;8926;49.720;6.576;2023-03-14T08:11:26;1.10;;;0.60;;
17614;SDS011;8926;49.720;6.576;2023-03-14T08:13:51;0.43;;;0.30;;
17614;SDS011;8926;49.720;6.576;2023-03-14T08:16:17;1.13;;;0.50;;
17614;SDS011;8926;49.720;6.576;2023-03-14T08:18:43;0.50;;;0.50;;
17614;SDS011;8926;49.720;6.576;2023-03-14T08:21:09;0.30;;;0.30;;
17614;SDS011;8926;49.720;6.576;2023-03-14T08:23:34;0.87;;;0.40;;
17614;SDS011;8926;49.720;6.576;2023-03-14T08:26:00;0.50;;;0.40;;
17614;SDS011;8926;49.720;6.576;2023-03-14T08:28:25;1.90;;;0.63;;
17614;SDS011;8926;49.720;6.576;2023-03-14T08:30:55;1.20;;;0.40;;
17614;SDS011;8926;49.720;6.576;2023-03-14T08:33:21;0.67;;;0.40;;
17614;SDS011;8926;49.720;6.576;2023-03-14T08:35:47;0.70;;;0.70;;
17614;SDS011;8926;49.720;6.576;2023-03-14T08:38:12;0.30;;;0.30;;
17614;SDS011;8926;49.720;6.576;2023-03-14T08:40:37;0.73;;;0.30;;
17614;SDS011;8926;49.720;6.576;2023-03-14T08:43:03;0.60;;;0.40;;
17614;SDS011;8926;49.720;6.576;2023-03-14T08:45:28;0.30;;;0.30;;
17614;SDS011;8926;49.720;6.576;2023-03-14T08:47:54;0.70;;;0.40;;
17614;SDS011;8926;49.720;6.576;2023-03-14T08:50:20;1.50;;;0.60;;
17614;SDS011;8926;49.720;6.576;2023-03-14T08:52:45;0.70;;;0.30;;
17614;SDS011;8926;49.720;6.576;2023-03-14T08:55:10;0.80;;;0.30;;
17614;SDS011;8926;49.720;6.576;2023-03-14T08:57:36;0.97;;;0.57;;
17614;SDS011;8926;49.720;6.576;2023-03-14T09:00:02;0.40;;;0.33;;
17614;SDS011;8926;49.720;6.576;2023-03-14T09:02:35;0.30;;;0.30;;
17614;SDS011;8926;49.720;6.576;2023-03-14T09:05:01;0.77;;;0.30;;
17614;SDS011;8926;49.720;6.576;2023-03-14T09:07:27;0.40;;;0.30;;
17614;SDS011;8926;49.720;6.576;2023-03-14T09:09:52;0.30;;;0.20;;
17614;SDS011;8926;49.720;6.576;2023-03-14T09:12:17;0.23;;;0.23;;
17614;SDS011;8926;49.720;6.576;2023-03-14T09:14:43;1.80;;;0.70;;
17614;SDS011;8926;49.720;6.576;2023-03-14T09:17:08;0.30;;;0.30;;
17614;SDS011;8926;49.720;6.576;2023-03-14T09:19:33;0.30;;;0.30;;
17614;SDS011;8926;49.720;6.576;2023-03-14T09:21:59;1.20;;;0.20;;
17614;SDS011;8926;49.720;6.576;2023-03-14T09:24:24;0.30;;;0.30;;
17614;SDS011;8926;49.720;6.576;2023-03-14T09:26:49;0.23;;;0.23;;
17614;SDS011;8926;49.720;6.576;2023-03-14T09:29:15;0.27;;;0.20;;
17614;SDS011;8926;49.720;6.576;2023-03-14T09:31:40;0.50;;;0.30;;
17614;SDS011;8926;49.720;6.576;2023-03-14T09:34:05;0.10;;;0.10;;
17614;SDS011;8926;49.720;6.576;2023-03-14T09:36:31;0.20;;;0.20;;
17614;SDS011;8926;49.720;6.576;2023-03-14T09:38:56;0.20;;;0.20;;
17614;SDS011;8926;49.720;6.576;2023-03-14T09:41:25;1.03;;;0.40;;
17614;SDS011;8926;49.720;6.576;2023-03-14T09:43:58;0.10;;;0.10;;
17614;SDS011;8926;49.720;6.576;2023-03-14T09:46:28;0.30;;;0.30;;
17614;SDS011;8926;49.720;6.576;2023-03-14T09:48:55;0.30;;;0.30;;
17614;SDS011;8926;49.720;6.576;2023-03-14T09:51:20;0.30;;;0.30;;
17614;SDS011;8926;49.720;6.576;2023-03-14T09:53:49;0.40;;;0.40;;
17614;SDS011;8926;49.720;6.576;2023-03-14T09:56:18;0.30;;;0.30;;
17614;SDS011;8926;49.720;6.576;2023-03-14T09:58:48;0.30;;;0.30;;
17614;SDS011;8926;49.720;6.576;2023-03-14T10:01:20;0.30;;;0.30;;
17614;SDS011;8926;49.720;6.576;2023-03-14T10:03:50;0.20;;;0.20;;
17614;SDS011;8926;49.720;6.576;2023-03-14T10:06:18;0.53;;;0.20;;
17614;SDS011;8926;49.720;6.576;2023-03-14T10:08:44;0.17;;;0.10;;
17614;SDS011;8926;49.720;6.576;2023-03-14T10:11:14;0.10;;;0.10;;
17614;SDS011;8926;49.720;6.576;2023-03-14T10:13:48;0.17;;;0.17;;
17614;SDS011;8926;49.720;6.576;2023-03-14T10:16:30;0.20;;;0.20;;
17614;SDS011;8926;49.720;6.576;2023-03-14T10:19:04;0.00;;;0.00;;
17614;SDS011;8926;49.720;6.576;2023-03-14T10:21:35;0.20;;;0.20;;
17614;SDS011;8926;49.720;6.576;2023-03-14T10:26:34;0.10;;;0.10;;
17614;SDS011;8926;49.720;6.576;2023-03-14T10:29:08;0.10;;;0.10;;
17614;SDS011;8926;49.720;6.576;2023-03-14T10:31:46;0.17;;;0.17;;
17614;SDS011;8926;49.720;6.576;2023-03-14T10:34:35;0.30;;;0.30;;
17614;SDS011;8926;49.720;6.576;2023-03-14T10:37:06;0.30;;;0.30;;
17614;SDS011;8926;49.720;6.576;2023-03-14T10:39:51;0.57;;;0.50;;
17614;SDS011;8926;49.720;6.576;2023-03-14T10:42:28;0.50;;;0.50;;
17614;SDS011;8926;49.720;6.576;2023-03-14T10:45:00;0.40;;;0.40;;
17614;SDS011;8926;49.720;6.576;2023-03-14T10:47:28;0.67;;;0.50;;
17614;SDS011;8926;49.720;6.576;2023-03-14T10:49:55;0.40;;;0.40;;
17614;SDS011;8926;49.720;6.576;2023-03-14T10:52:46;0.47;;;0.33;;
17614;SDS011;8926;49.720;6.576;2023-03-14T10:55:13;0.40;;;0.30;;
17614;SDS011;8926;49.720;6.576;2023-03-14T10:57:39;0.60;;;0.60;;
17614;SDS011;8926;49.720;6.576;2023-03-14T11:00:05;0.60;;;0.60;;
17614;SDS011;8926;49.720;6.576;2023-03-14T11:02:46;0.70;;;0.70;;
17614;SDS011;8926;49.720;6.576;2023-03-14T11:05:31;1.10;;;1.00;;
17614;SDS011;8926;49.720;6.576;2023-03-14T11:08:07;0.90;;;0.90;;
17614;SDS011;8926;49.720;6.576;2023-03-14T11:10:39;0.87;;;0.83;;
17614;SDS011;8926;49.720;6.576;2023-03-14T11:13:24;1.20;;;1.10;;
17614;SDS011;8926;49.720;6.576;2023-03-14T11:27:34;0.70;;;0.70;;
17614;SDS011;8926;49.720;6.576;2023-03-14T11:33:04;0.60;;;0.60;;
17614;SDS011;8926;49.720;6.576;2023-03-14T11:35:34;0.77;;;0.77;;
17614;SDS011;8926;49.720;6.576;2023-03-14T11:40:46;1.80;;;1.07;;
17614;SDS011;8926;49.720;6.576;2023-03-14T11:43:17;0.70;;;0.70;;
17614;SDS011;8926;49.720;6.576;2023-03-14T11:46:29;0.83;;;0.83;;
17614;SDS011;8926;49.720;6.576;2023-03-14T11:48:58;1.03;;;0.73;;
17614;SDS011;8926;49.720;6.576;2023-03-14T11:51:35;0.80;;;0.80;;
17614;SDS011;8926;49.720;6.576;2023-03-14T11:56:36;3.77;;;1.00;;
17614;SDS011;8926;49.720;6.576;2023-03-14T12:02:00;0.70;;;0.50;;
17614;SDS011;8926;49.720;6.576;2023-03-14T12:04:31;1.67;;;0.60;;
17614;SDS011;8926;49.720;6.576;2023-03-14T12:07:20;2.07;;;0.73;;
17614;SDS011;8926;49.720;6.576;2023-03-14T12:09:50;0.40;;;0.40;;
17614;SDS011;8926;49.720;6.576;2023-03-14T12:12:24;1.37;;;0.87;;
17614;SDS011;8926;49.720;6.576;2023-03-14T12:14:53;0.70;;;0.70;;
17614;SDS011;8926;49.720;6.576;2023-03-14T12:17:23;1.13;;;0.90;;
17614;SDS011;8926;49.720;6.576;2023-03-14T12:20:00;2.00;;;0.83;;
17614;SDS011;8926;49.720;6.576;2023-03-14T12:22:32;0.77;;;0.70;;
17614;SDS011;8926;49.720;6.576;2023-03-14T12:25:02;0.50;;;0.50;;
17614;SDS011;8926;49.720;6.576;2023-03-14T12:35:45;1.13;;;0.57;;
17614;SDS011;8926;49.720;6.576;2023-03-14T12:38:17;0.40;;;0.40;;
17614;SDS011;8926;49.720;6.576;2023-03-14T12:41:03;0.77;;;0.40;;
17614;SDS011;8926;49.720;6.576;2023-03-14T12:43:46;1.23;;;0.53;;
17614;SDS011;8926;49.720;6.576;2023-03-14T12:48:46;0.70;;;0.50;;
17614;SDS011;8926;49.720;6.576;2023-03-14T12:51:19;0.50;;;0.30;;
17614;SDS011;8926;49.720;6.576;2023-03-14T12:56:50;1.13;;;0.80;;
17614;SDS011;8926;49.720;6.576;2023-03-14T13:02:01;0.47;;;0.47;;
17614;SDS011;8926;49.720;6.576;2023-03-14T13:07:28;2.10;;;0.70;;
17614;SDS011;8926;49.720;6.576;2023-03-14T13:09:55;1.23;;;0.60;;
17614;SDS011;8926;49.720;6.576;2023-03-14T13:12:27;1.23;;;0.70;;
17614;SDS011;8926;49.720;6.576;2023-03-14T13:14:57;1.23;;;0.50;;
17614;SDS011;8926;49.720;6.576;2023-03-14T13:17:26;0.30;;;0.30;;
17614;SDS011;8926;49.720;6.576;2023-03-14T13:19:56;0.80;;;0.50;;
17614;SDS011;8926;49.720;6.576;2023-03-14T13:22:26;0.83;;;0.67;;
17614;SDS011;8926;49.720;6.576;2023-03-14T13:25:02;0.60;;;0.30;;
17614;SDS011;8926;49.720;6.576;2023-03-14T13:27:33;0.47;;;0.47;;
17614;SDS011;8926;49.720;6.576;2023-03-14T13:30:04;1.13;;;1.10;;
17614;SDS011;8926;49.720;6.576;2023-03-14T13:32:31;1.10;;;1.10;;
17614;SDS011;8926;49.720;6.576;2023-03-14T13:34:56;1.60;;;1.23;;
17614;SDS011;8926;49.720;6.576;2023-03-14T13:37:23;1.63;;;0.80;;
17614;SDS011;8926;49.720;6.576;2023-03-14T13:39:51;0.90;;;0.90;;
17614;SDS011;8926;49.720;6.576;2023-03-14T13:42:20;1.20;;;1.00;;
17614;SDS011;8926;49.720;6.576;2023-03-14T13:44:49;1.00;;;0.80;;
17614;SDS011;8926;49.720;6.576;2023-03-14T13:47:18;1.23;;;0.70;;
17614;SDS011;8926;49.720;6.576;2023-03-14T13:49:46;1.23;;;0.90;;
17614;SDS011;8926;49.720;6.576;2023-03-14T13:54:56;1.80;;;0.90;;
17614;SDS011;8926;49.720;6.576;2023-03-14T13:57:22;0.70;;;0.60;;
17614;SDS011;8926;49.720;6.576;2023-03-14T14:00:06;1.53;;;0.80;;
17614;SDS011;8926;49.720;6.576;2023-03-14T14:02:35;1.70;;;0.93;;
17614;SDS011;8926;49.720;6.576;2023-03-14T14:05:02;1.07;;;0.60;;
17614;SDS011;8926;49.720;6.576;2023-03-14T14:07:29;1.93;;;1.53;;
17614;SDS011;8926;49.720;6.576;2023-03-14T14:09:54;2.67;;;2.43;;
17614;SDS011;8926;49.720;6.576;2023-03-14T14:12:39;1.57;;;1.10;;
17614;SDS011;8926;49.720;6.576;2023-03-14T14:15:21;3.97;;;3.10;;
17614;SDS011;8926;49.720;6.576;2023-03-14T14:18:12;1.60;;;1.47;;
17614;SDS011;8926;49.720;6.576;2023-03-14T14:20:40;0.50;;;0.50;;
17614;SDS011;8926;49.720;6.576;2023-03-14T14:23:15;2.77;;;1.60;;
17614;SDS011;8926;49.720;6.576;2023-03-14T14:25:49;2.17;;;1.67;;
17614;SDS011;8926;49.720;6.576;2023-03-14T14:28:28;1.57;;;1.00;;
17614;SDS011;8926;49.720;6.576;2023-03-14T14:33:46;0.70;;;0.50;;
17614;SDS011;8926;49.720;6.576;2023-03-14T14:36:26;1.87;;;1.43;;
17614;SDS011;8926;49.720;6.576;2023-03-14T14:38:59;1.93;;;1.20;;
17614;SDS011;8926;49.720;6.576;2023-03-14T14:41:30;1.50;;;1.13;;
17614;SDS011;8926;49.720;6.576;2023-03-14T14:43:57;1.37;;;1.03;;
17614;SDS011;8926;49.720;6.576;2023-03-14T14:46:25;2.43;;;0.80;;
17614;SDS011;8926;49.720;6.576;2023-03-14T14:48:55;1.13;;;0.80;;
17614;SDS011;8926;49.720;6.576;2023-03-14T14:51:23;1.20;;;0.90;;
17614;SDS011;8926;49.720;6.576;2023-03-14T14:53:59;1.73;;;0.80;;
17614;SDS011;8926;49.720;6.576;2023-03-14T14:56:27;2.43;;;1.93;;
17614;SDS011;8926;49.720;6.576;2023-03-14T14:59:00;3.00;;;1.60;;
17614;SDS011;8926;49.720;6.576;2023-03-14T15:01:35;1.10;;;1.00;;
17614;SDS011;8926;49.720;6.576;2023-03-14T15:04:04;3.07;;;1.40;;
17614;SDS011;8926;49.720;6.576;2023-03-14T15:06:37;3.60;;;1.60;;
17614;SDS011;8926;49.720;6.576;2023-03-14T15:09:02;2.17;;;1.97;;
17614;SDS011;8926;49.720;6.576;2023-03-14T15:11:28;2.17;;;2.00;;
17614;SDS011;8926;49.720;6.576;2023-03-14T15:13:53;2.80;;;1.37;;
17614;SDS011;8926;49.720;6.576;2023-03-14T15:16:23;2.00;;;1.80;;
17614;SDS011;8926;49.720;6.576;2023-03-14T15:18:53;1.30;;;1.20;;
17614;SDS011;8926;49.720;6.576;2023-03-14T15:21:21;1.50;;;1.03;;
17614;SDS011;8926;49.720;6.576;2023-03-14T15:23:47;1.87;;;1.20;;
17614;SDS011;8926;49.720;6.576;2023-03-14T15:26:20;1.13;;;1.13;;
17614;SDS011;8926;49.720;6.576;2023-03-14T15:28:47;2.60;;;1.83;;
17614;SDS011;8926;49.720;6.576;2023-03-14T15:31:14;3.37;;;1.40;;
17614;SDS011;8926;49.720;6.576;2023-03-14T15:33:40;1.63;;;0.90;;
17614;SDS011;8926;49.720;6.576;2023-03-14T15:36:06;1.63;;;1.17;;
17614;SDS011;8926;49.720;6.576;2023-03-14T15:38:44;3.13;;;2.30;;
17614;SDS011;8926;49.720;6.576;2023-03-14T15:41:09;2.43;;;1.80;;
17614;SDS011;8926;49.720;6.576;2023-03-14T15:43:34;2.23;;;1.37;;
17614;SDS011;8926;49.720;6.576;2023-03-14T15:46:00;2.13;;;1.43;;
17614;SDS011;8926;49.720;6.576;2023-03-14T15:48:25;1.33;;;1.23;;
17614;SDS011;8926;49.720;6.576;2023-03-14T15:50:50;2.17;;;1.37;;
17614;SDS011;8926;49.720;6.576;2023-03-14T15:53:15;2.87;;;2.20;;
17614;SDS011;8926;49.720;6.576;2023-03-14T15:55:41;2.00;;;0.80;;
17614;SDS011;8926;49.720;6.576;2023-03-14T15:58:08;1.30;;;0.70;;
17614;SDS011;8926;49.720;6.576;2023-03-14T16:00:40;0.70;;;0.63;;